sensor_id;sensor_type;location;lat;lon;timestamp;temperature;humidity
27890;DHT22;15238;49.082;9.102;2022-10-24T00:00:06;17.40;99.90
27890;DHT22;15238;49.082;9.102;2022-10-24T00:02:08;17.40;99.90
27890;DHT22;15238;49.082;9.102;2022-10-24T00:04:08;17.40;99.90
27890;DHT22;15238;49.082;9.102;2022-10-24T00:06:10;17.50;99.90
27890;DHT22;15238;49.082;9.102;2022-10-24T00:08:11;17.50;99.90
27890;DHT22;15238;49.082;9.102;2022-10-24T00:10:12;17.60;99.90
27890;DHT22;15238;49.082;9.102;2022-10-24T00:12:13;17.60;99.90
27890;DHT22;15238;49.082;9.102;2022-10-24T00:14:13;17.60;99.90
27890;DHT22;15238;49.082;9.102;2022-10-24T00:16:14;17.60;99.90
27890;DHT22;15238;49.082;9.102;2022-10-24T00:18:15;17.60;99.90
27890;DHT22;15238;49.082;9.102;2022-10-24T00:20:16;17.50;99.90
27890;DHT22;15238;49.082;9.102;2022-10-24T00:22:16;17.60;99.90
27890;DHT22;15238;49.082;9.102;2022-10-24T00:24:17;17.50;99.90
27890;DHT22;15238;49.082;9.102;2022-10-24T00:26:18;17.50;99.90
27890;DHT22;15238;49.082;9.102;2022-10-24T00:28:18;17.40;99.90
27890;DHT22;15238;49.082;9.102;2022-10-24T00:30:19;17.30;99.90
27890;DHT22;15238;49.082;9.102;2022-10-24T00:32:19;17.10;99.90
27890;DHT22;15238;49.082;9.102;2022-10-24T00:34:20;17.10;99.90
27890;DHT22;15238;49.082;9.102;2022-10-24T00:36:22;16.90;99.90
27890;DHT22;15238;49.082;9.102;2022-10-24T00:38:23;16.80;99.90
27890;DHT22;15238;49.082;9.102;2022-10-24T00:40:23;16.70;99.90
27890;DHT22;15238;49.082;9.102;2022-10-24T00:42:24;16.60;99.90
27890;DHT22;15238;49.082;9.102;2022-10-24T00:46:26;16.40;99.90
27890;DHT22;15238;49.082;9.102;2022-10-24T00:48:37;16.40;99.90
27890;DHT22;15238;49.082;9.102;2022-10-24T00:50:38;16.30;99.90
27890;DHT22;15238;49.082;9.102;2022-10-24T00:52:42;16.30;99.90
27890;DHT22;15238;49.082;9.102;2022-10-24T00:54:45;16.30;99.90
27890;DHT22;15238;49.082;9.102;2022-10-24T00:59:13;16.40;99.90
27890;DHT22;15238;49.082;9.102;2022-10-24T01:01:15;16.40;99.90
27890;DHT22;15238;49.082;9.102;2022-10-24T01:03:16;16.30;99.90
27890;DHT22;15238;49.082;9.102;2022-10-24T01:05:18;16.30;99.90
27890;DHT22;15238;49.082;9.102;2022-10-24T01:07:23;16.30;99.90
27890;DHT22;15238;49.082;9.102;2022-10-24T01:16:12;16.20;99.90
27890;DHT22;15238;49.082;9.102;2022-10-24T01:18:31;16.10;99.90
27890;DHT22;15238;49.082;9.102;2022-10-24T01:27:48;16.00;99.90
27890;DHT22;15238;49.082;9.102;2022-10-24T01:30:22;16.00;99.90
27890;DHT22;15238;49.082;9.102;2022-10-24T01:32:34;15.90;99.90
27890;DHT22;15238;49.082;9.102;2022-10-24T01:34:44;15.80;99.90
27890;DHT22;15238;49.082;9.102;2022-10-24T01:36:59;15.80;99.90
27890;DHT22;15238;49.082;9.102;2022-10-24T01:39:05;15.70;99.90
27890;DHT22;15238;49.082;9.102;2022-10-24T01:41:19;15.70;99.90
27890;DHT22;15238;49.082;9.102;2022-10-24T01:43:54;15.60;99.90
27890;DHT22;15238;49.082;9.102;2022-10-24T01:46:02;15.60;99.90
27890;DHT22;15238;49.082;9.102;2022-10-24T01:48:06;15.60;99.90
27890;DHT22;15238;49.082;9.102;2022-10-24T01:50:11;15.60;99.90
27890;DHT22;15238;49.082;9.102;2022-10-24T01:52:13;15.70;99.90
27890;DHT22;15238;49.082;9.102;2022-10-24T01:54:15;15.70;99.90
27890;DHT22;15238;49.082;9.102;2022-10-24T01:56:16;15.70;99.90
27890;DHT22;15238;49.082;9.102;2022-10-24T01:58:17;15.70;99.90
27890;DHT22;15238;49.082;9.102;2022-10-24T02:00:20;15.70;99.90
27890;DHT22;15238;49.082;9.102;2022-10-24T02:05:05;15.60;99.90
27890;DHT22;15238;49.082;9.102;2022-10-24T02:07:07;15.70;99.90
27890;DHT22;15238;49.082;9.102;2022-10-24T02:09:14;15.70;99.90
27890;DHT22;15238;49.082;9.102;2022-10-24T02:11:15;15.80;99.90
27890;DHT22;15238;49.082;9.102;2022-10-24T02:13:26;15.80;99.90
27890;DHT22;15238;49.082;9.102;2022-10-24T02:15:39;15.80;99.90
27890;DHT22;15238;49.082;9.102;2022-10-24T02:17:42;15.80;99.90
27890;DHT22;15238;49.082;9.102;2022-10-24T02:19:43;15.80;99.90
27890;DHT22;15238;49.082;9.102;2022-10-24T02:22:02;15.80;99.90
27890;DHT22;15238;49.082;9.102;2022-10-24T02:24:31;15.80;99.90
27890;DHT22;15238;49.082;9.102;2022-10-24T02:26:40;15.80;99.90
27890;DHT22;15238;49.082;9.102;2022-10-24T02:28:47;15.90;99.90
27890;DHT22;15238;49.082;9.102;2022-10-24T02:31:02;15.90;99.90
27890;DHT22;15238;49.082;9.102;2022-10-24T02:33:04;15.90;99.90
27890;DHT22;15238;49.082;9.102;2022-10-24T02:35:06;15.90;99.90
27890;DHT22;15238;49.082;9.102;2022-10-24T02:37:09;15.90;99.90
27890;DHT22;15238;49.082;9.102;2022-10-24T02:39:11;15.90;99.90
27890;DHT22;15238;49.082;9.102;2022-10-24T02:41:18;15.90;99.90
27890;DHT22;15238;49.082;9.102;2022-10-24T02:43:21;15.90;99.90
27890;DHT22;15238;49.082;9.102;2022-10-24T02:45:23;15.90;99.90
27890;DHT22;15238;49.082;9.102;2022-10-24T02:47:25;15.80;99.90
27890;DHT22;15238;49.082;9.102;2022-10-24T02:49:26;15.70;99.90
27890;DHT22;15238;49.082;9.102;2022-10-24T02:51:33;15.70;99.90
27890;DHT22;15238;49.082;9.102;2022-10-24T02:53:35;15.70;99.90
27890;DHT22;15238;49.082;9.102;2022-10-24T02:55:36;15.70;99.90
27890;DHT22;15238;49.082;9.102;2022-10-24T02:57:37;15.60;99.90
27890;DHT22;15238;49.082;9.102;2022-10-24T02:59:38;15.60;99.90
27890;DHT22;15238;49.082;9.102;2022-10-24T03:01:38;15.50;99.90
27890;DHT22;15238;49.082;9.102;2022-10-24T03:03:39;15.50;99.90
27890;DHT22;15238;49.082;9.102;2022-10-24T03:05:39;15.50;99.90
27890;DHT22;15238;49.082;9.102;2022-10-24T03:07:40;15.60;99.90
27890;DHT22;15238;49.082;9.102;2022-10-24T03:09:41;15.60;99.90
27890;DHT22;15238;49.082;9.102;2022-10-24T03:11:41;15.70;99.90
27890;DHT22;15238;49.082;9.102;2022-10-24T03:13:42;15.70;99.90
27890;DHT22;15238;49.082;9.102;2022-10-24T03:15:42;15.70;99.90
27890;DHT22;15238;49.082;9.102;2022-10-24T03:17:43;15.70;99.90
27890;DHT22;15238;49.082;9.102;2022-10-24T03:19:43;15.70;99.90
27890;DHT22;15238;49.082;9.102;2022-10-24T03:21:45;15.70;99.90
27890;DHT22;15238;49.082;9.102;2022-10-24T03:23:45;15.60;99.90
27890;DHT22;15238;49.082;9.102;2022-10-24T03:25:46;15.60;99.90
27890;DHT22;15238;49.082;9.102;2022-10-24T03:27:46;15.60;99.90
27890;DHT22;15238;49.082;9.102;2022-10-24T03:29:47;15.60;99.90
27890;DHT22;15238;49.082;9.102;2022-10-24T03:31:48;15.60;99.90
27890;DHT22;15238;49.082;9.102;2022-10-24T03:33:48;15.50;99.90
27890;DHT22;15238;49.082;9.102;2022-10-24T03:35:52;15.40;99.90
27890;DHT22;15238;49.082;9.102;2022-10-24T03:37:53;15.50;99.90
27890;DHT22;15238;49.082;9.102;2022-10-24T03:39:53;15.40;99.90
27890;DHT22;15238;49.082;9.102;2022-10-24T03:41:54;15.30;99.90
27890;DHT22;15238;49.082;9.102;2022-10-24T03:43:54;15.30;99.90
27890;DHT22;15238;49.082;9.102;2022-10-24T03:45:55;15.30;99.90
27890;DHT22;15238;49.082;9.102;2022-10-24T03:47:55;15.30;99.90
27890;DHT22;15238;49.082;9.102;2022-10-24T03:49:56;15.30;99.90
27890;DHT22;15238;49.082;9.102;2022-10-24T03:51:56;15.40;99.90
27890;DHT22;15238;49.082;9.102;2022-10-24T03:53:57;15.40;99.90
27890;DHT22;15238;49.082;9.102;2022-10-24T03:55:58;15.40;99.90
27890;DHT22;15238;49.082;9.102;2022-10-24T03:57:59;15.40;99.90
27890;DHT22;15238;49.082;9.102;2022-10-24T04:00:00;15.50;99.90
27890;DHT22;15238;49.082;9.102;2022-10-24T04:02:01;15.60;99.90
27890;DHT22;15238;49.082;9.102;2022-10-24T04:04:02;15.60;99.90
27890;DHT22;15238;49.082;9.102;2022-10-24T04:06:03;15.60;99.90
27890;DHT22;15238;49.082;9.102;2022-10-24T04:08:03;15.60;99.90
27890;DHT22;15238;49.082;9.102;2022-10-24T04:10:05;15.60;99.90
27890;DHT22;15238;49.082;9.102;2022-10-24T04:12:06;15.70;99.90
27890;DHT22;15238;49.082;9.102;2022-10-24T04:14:06;15.70;99.90
27890;DHT22;15238;49.082;9.102;2022-10-24T04:16:08;15.70;99.90
27890;DHT22;15238;49.082;9.102;2022-10-24T04:18:09;15.70;99.90
27890;DHT22;15238;49.082;9.102;2022-10-24T04:20:10;15.70;99.90
27890;DHT22;15238;49.082;9.102;2022-10-24T04:22:10;15.70;99.90
27890;DHT22;15238;49.082;9.102;2022-10-24T04:24:11;15.70;99.90
27890;DHT22;15238;49.082;9.102;2022-10-24T04:26:13;15.70;99.90
27890;DHT22;15238;49.082;9.102;2022-10-24T04:28:14;15.70;99.90
27890;DHT22;15238;49.082;9.102;2022-10-24T04:30:15;15.70;99.90
27890;DHT22;15238;49.082;9.102;2022-10-24T04:32:15;15.70;99.90
27890;DHT22;15238;49.082;9.102;2022-10-24T04:34:16;15.70;99.90
27890;DHT22;15238;49.082;9.102;2022-10-24T04:36:17;15.60;99.90
27890;DHT22;15238;49.082;9.102;2022-10-24T04:38:18;15.60;99.90
27890;DHT22;15238;49.082;9.102;2022-10-24T04:40:18;15.60;99.90
27890;DHT22;15238;49.082;9.102;2022-10-24T04:42:20;15.60;99.90
27890;DHT22;15238;49.082;9.102;2022-10-24T04:44:21;15.60;99.90
27890;DHT22;15238;49.082;9.102;2022-10-24T04:46:22;15.60;99.90
27890;DHT22;15238;49.082;9.102;2022-10-24T04:48:22;15.60;99.90
27890;DHT22;15238;49.082;9.102;2022-10-24T04:50:23;15.60;99.90
27890;DHT22;15238;49.082;9.102;2022-10-24T04:52:24;15.60;99.90
27890;DHT22;15238;49.082;9.102;2022-10-24T04:54:24;15.60;99.90
27890;DHT22;15238;49.082;9.102;2022-10-24T04:56:25;15.60;99.90
27890;DHT22;15238;49.082;9.102;2022-10-24T04:58:26;15.60;99.90
27890;DHT22;15238;49.082;9.102;2022-10-24T05:00:26;15.70;99.90
27890;DHT22;15238;49.082;9.102;2022-10-24T05:02:27;15.70;99.90
27890;DHT22;15238;49.082;9.102;2022-10-24T05:04:28;15.70;99.90
27890;DHT22;15238;49.082;9.102;2022-10-24T05:06:28;15.80;99.90
27890;DHT22;15238;49.082;9.102;2022-10-24T05:08:29;15.70;99.90
27890;DHT22;15238;49.082;9.102;2022-10-24T05:10:30;15.80;99.90
27890;DHT22;15238;49.082;9.102;2022-10-24T05:12:30;15.90;99.90
27890;DHT22;15238;49.082;9.102;2022-10-24T05:14:31;15.90;99.90
27890;DHT22;15238;49.082;9.102;2022-10-24T05:16:31;16.00;99.90
27890;DHT22;15238;49.082;9.102;2022-10-24T05:18:32;16.10;99.90
27890;DHT22;15238;49.082;9.102;2022-10-24T05:20:33;16.10;99.90
27890;DHT22;15238;49.082;9.102;2022-10-24T05:22:33;16.20;99.90
27890;DHT22;15238;49.082;9.102;2022-10-24T05:24:34;16.20;99.90
27890;DHT22;15238;49.082;9.102;2022-10-24T05:26:35;16.20;99.90
27890;DHT22;15238;49.082;9.102;2022-10-24T05:28:35;16.20;99.90
27890;DHT22;15238;49.082;9.102;2022-10-24T05:30:36;16.30;99.90
27890;DHT22;15238;49.082;9.102;2022-10-24T05:32:36;16.30;99.90
27890;DHT22;15238;49.082;9.102;2022-10-24T05:34:37;16.30;99.90
27890;DHT22;15238;49.082;9.102;2022-10-24T05:36:38;16.40;99.90
27890;DHT22;15238;49.082;9.102;2022-10-24T05:38:39;16.40;99.90
27890;DHT22;15238;49.082;9.102;2022-10-24T05:40:40;16.40;99.90
27890;DHT22;15238;49.082;9.102;2022-10-24T05:42:40;16.30;99.90
27890;DHT22;15238;49.082;9.102;2022-10-24T05:44:41;16.00;99.90
27890;DHT22;15238;49.082;9.102;2022-10-24T05:46:42;15.60;99.90
27890;DHT22;15238;49.082;9.102;2022-10-24T05:48:42;15.40;99.90
27890;DHT22;15238;49.082;9.102;2022-10-24T05:50:43;15.20;99.90
27890;DHT22;15238;49.082;9.102;2022-10-24T05:52:43;15.00;99.90
27890;DHT22;15238;49.082;9.102;2022-10-24T05:54:44;14.90;99.90
27890;DHT22;15238;49.082;9.102;2022-10-24T05:56:44;14.80;99.90
27890;DHT22;15238;49.082;9.102;2022-10-24T05:58:45;14.70;99.90
27890;DHT22;15238;49.082;9.102;2022-10-24T06:00:49;14.70;99.90
27890;DHT22;15238;49.082;9.102;2022-10-24T06:02:50;14.60;99.90
27890;DHT22;15238;49.082;9.102;2022-10-24T06:04:50;14.60;99.90
27890;DHT22;15238;49.082;9.102;2022-10-24T06:06:51;14.50;99.90
27890;DHT22;15238;49.082;9.102;2022-10-24T06:08:51;14.50;99.90
27890;DHT22;15238;49.082;9.102;2022-10-24T06:10:52;14.50;99.90
27890;DHT22;15238;49.082;9.102;2022-10-24T06:12:53;14.50;99.90
27890;DHT22;15238;49.082;9.102;2022-10-24T06:14:57;14.50;99.90
27890;DHT22;15238;49.082;9.102;2022-10-24T06:16:58;14.50;99.90
27890;DHT22;15238;49.082;9.102;2022-10-24T06:18:59;14.70;99.90
27890;DHT22;15238;49.082;9.102;2022-10-24T06:21:01;14.80;99.90
27890;DHT22;15238;49.082;9.102;2022-10-24T06:23:02;14.80;99.90
27890;DHT22;15238;49.082;9.102;2022-10-24T06:25:03;14.90;99.90
27890;DHT22;15238;49.082;9.102;2022-10-24T06:27:04;14.90;99.90
27890;DHT22;15238;49.082;9.102;2022-10-24T06:29:05;15.00;99.90
27890;DHT22;15238;49.082;9.102;2022-10-24T06:31:06;15.10;99.90
27890;DHT22;15238;49.082;9.102;2022-10-24T06:33:07;15.10;99.90
27890;DHT22;15238;49.082;9.102;2022-10-24T06:35:08;15.10;99.90
27890;DHT22;15238;49.082;9.102;2022-10-24T06:37:11;15.10;99.90
27890;DHT22;15238;49.082;9.102;2022-10-24T06:39:11;15.30;99.90
27890;DHT22;15238;49.082;9.102;2022-10-24T06:41:13;15.40;99.90
27890;DHT22;15238;49.082;9.102;2022-10-24T06:43:13;15.40;99.90
27890;DHT22;15238;49.082;9.102;2022-10-24T06:45:15;15.40;99.90
27890;DHT22;15238;49.082;9.102;2022-10-24T06:47:17;15.40;99.90
27890;DHT22;15238;49.082;9.102;2022-10-24T06:49:18;15.40;99.90
27890;DHT22;15238;49.082;9.102;2022-10-24T06:51:18;15.40;99.90
27890;DHT22;15238;49.082;9.102;2022-10-24T06:53:19;15.40;99.90
27890;DHT22;15238;49.082;9.102;2022-10-24T06:55:19;15.40;99.90
27890;DHT22;15238;49.082;9.102;2022-10-24T06:57:20;15.40;99.90
27890;DHT22;15238;49.082;9.102;2022-10-24T06:59:21;15.30;99.90
27890;DHT22;15238;49.082;9.102;2022-10-24T07:01:24;15.40;99.90
27890;DHT22;15238;49.082;9.102;2022-10-24T07:03:25;15.30;99.90
27890;DHT22;15238;49.082;9.102;2022-10-24T07:05:26;15.30;99.90
27890;DHT22;15238;49.082;9.102;2022-10-24T07:07:26;15.30;99.90
27890;DHT22;15238;49.082;9.102;2022-10-24T07:09:27;15.30;99.90
27890;DHT22;15238;49.082;9.102;2022-10-24T07:11:28;15.30;99.90
27890;DHT22;15238;49.082;9.102;2022-10-24T07:13:29;15.20;99.90
27890;DHT22;15238;49.082;9.102;2022-10-24T07:15:29;15.30;99.90
27890;DHT22;15238;49.082;9.102;2022-10-24T07:17:30;15.30;99.90
27890;DHT22;15238;49.082;9.102;2022-10-24T07:19:31;15.20;99.90
27890;DHT22;15238;49.082;9.102;2022-10-24T07:21:32;15.20;99.90
27890;DHT22;15238;49.082;9.102;2022-10-24T07:23:33;15.20;99.90
27890;DHT22;15238;49.082;9.102;2022-10-24T07:25:33;15.20;99.90
27890;DHT22;15238;49.082;9.102;2022-10-24T07:27:34;15.20;99.90
27890;DHT22;15238;49.082;9.102;2022-10-24T07:29:38;15.20;99.90
27890;DHT22;15238;49.082;9.102;2022-10-24T07:31:38;15.20;99.90
27890;DHT22;15238;49.082;9.102;2022-10-24T07:33:39;15.20;99.90
27890;DHT22;15238;49.082;9.102;2022-10-24T07:35:41;15.30;99.90
27890;DHT22;15238;49.082;9.102;2022-10-24T07:37:42;15.30;99.90
27890;DHT22;15238;49.082;9.102;2022-10-24T07:39:43;15.30;99.90
27890;DHT22;15238;49.082;9.102;2022-10-24T07:41:46;15.20;99.90
27890;DHT22;15238;49.082;9.102;2022-10-24T07:43:46;15.20;99.90
27890;DHT22;15238;49.082;9.102;2022-10-24T07:45:47;15.20;99.90
27890;DHT22;15238;49.082;9.102;2022-10-24T07:47:48;15.20;99.90
27890;DHT22;15238;49.082;9.102;2022-10-24T07:49:48;15.20;99.90
27890;DHT22;15238;49.082;9.102;2022-10-24T07:51:49;15.20;99.90
27890;DHT22;15238;49.082;9.102;2022-10-24T07:53:49;15.30;99.90
27890;DHT22;15238;49.082;9.102;2022-10-24T07:55:50;15.30;99.90
27890;DHT22;15238;49.082;9.102;2022-10-24T07:57:51;15.30;99.90
27890;DHT22;15238;49.082;9.102;2022-10-24T07:59:51;15.30;99.90
27890;DHT22;15238;49.082;9.102;2022-10-24T08:01:52;15.30;99.90
27890;DHT22;15238;49.082;9.102;2022-10-24T08:03:53;15.30;99.90
27890;DHT22;15238;49.082;9.102;2022-10-24T08:05:54;15.30;99.90
27890;DHT22;15238;49.082;9.102;2022-10-24T08:07:56;15.30;99.90
27890;DHT22;15238;49.082;9.102;2022-10-24T08:09:56;15.40;99.90
27890;DHT22;15238;49.082;9.102;2022-10-24T08:11:57;15.40;99.90
27890;DHT22;15238;49.082;9.102;2022-10-24T08:13:57;15.40;99.90
27890;DHT22;15238;49.082;9.102;2022-10-24T08:15:58;15.40;99.90
27890;DHT22;15238;49.082;9.102;2022-10-24T08:17:59;15.40;99.90
27890;DHT22;15238;49.082;9.102;2022-10-24T08:19:59;15.40;99.90
27890;DHT22;15238;49.082;9.102;2022-10-24T08:22:00;15.50;99.90
27890;DHT22;15238;49.082;9.102;2022-10-24T08:24:01;15.50;99.90
27890;DHT22;15238;49.082;9.102;2022-10-24T08:26:06;15.40;99.90
27890;DHT22;15238;49.082;9.102;2022-10-24T08:28:07;15.40;99.90
27890;DHT22;15238;49.082;9.102;2022-10-24T08:30:08;15.40;99.90
27890;DHT22;15238;49.082;9.102;2022-10-24T08:32:08;15.40;99.90
27890;DHT22;15238;49.082;9.102;2022-10-24T08:34:09;15.50;99.90
27890;DHT22;15238;49.082;9.102;2022-10-24T08:36:18;15.50;99.90
27890;DHT22;15238;49.082;9.102;2022-10-24T08:38:20;15.50;99.90
27890;DHT22;15238;49.082;9.102;2022-10-24T08:40:21;15.50;99.90
27890;DHT22;15238;49.082;9.102;2022-10-24T08:42:23;15.50;99.90
27890;DHT22;15238;49.082;9.102;2022-10-24T08:44:32;15.50;99.90
27890;DHT22;15238;49.082;9.102;2022-10-24T08:46:46;15.60;99.90
27890;DHT22;15238;49.082;9.102;2022-10-24T08:48:54;15.60;99.90
27890;DHT22;15238;49.082;9.102;2022-10-24T08:51:24;15.60;99.90
27890;DHT22;15238;49.082;9.102;2022-10-24T08:53:28;15.70;99.90
27890;DHT22;15238;49.082;9.102;2022-10-24T08:55:47;15.70;99.90
27890;DHT22;15238;49.082;9.102;2022-10-24T08:57:58;15.70;99.90
27890;DHT22;15238;49.082;9.102;2022-10-24T09:00:04;15.80;99.90
27890;DHT22;15238;49.082;9.102;2022-10-24T09:02:18;15.80;99.90
27890;DHT22;15238;49.082;9.102;2022-10-24T09:04:22;15.80;99.90
27890;DHT22;15238;49.082;9.102;2022-10-24T09:06:29;15.80;99.90
27890;DHT22;15238;49.082;9.102;2022-10-24T09:10:47;15.80;99.90
27890;DHT22;15238;49.082;9.102;2022-10-24T09:12:48;15.80;99.90
27890;DHT22;15238;49.082;9.102;2022-10-24T09:14:56;15.80;99.90
27890;DHT22;15238;49.082;9.102;2022-10-24T09:17:00;15.80;99.90
27890;DHT22;15238;49.082;9.102;2022-10-24T09:19:01;15.80;99.90
27890;DHT22;15238;49.082;9.102;2022-10-24T09:21:05;15.80;99.90
27890;DHT22;15238;49.082;9.102;2022-10-24T09:23:06;15.70;99.90
27890;DHT22;15238;49.082;9.102;2022-10-24T09:25:12;15.70;99.90
27890;DHT22;15238;49.082;9.102;2022-10-24T09:27:18;15.70;99.90
27890;DHT22;15238;49.082;9.102;2022-10-24T09:29:19;15.70;99.90
27890;DHT22;15238;49.082;9.102;2022-10-24T09:31:23;15.70;99.90
27890;DHT22;15238;49.082;9.102;2022-10-24T09:33:27;15.70;99.90
27890;DHT22;15238;49.082;9.102;2022-10-24T09:35:29;15.70;99.90
27890;DHT22;15238;49.082;9.102;2022-10-24T09:37:43;15.70;99.90
27890;DHT22;15238;49.082;9.102;2022-10-24T09:39:44;15.70;99.90
27890;DHT22;15238;49.082;9.102;2022-10-24T09:41:45;15.80;99.90
27890;DHT22;15238;49.082;9.102;2022-10-24T09:44:00;15.80;99.90
27890;DHT22;15238;49.082;9.102;2022-10-24T09:46:12;15.80;99.90
27890;DHT22;15238;49.082;9.102;2022-10-24T09:48:44;15.80;99.90
27890;DHT22;15238;49.082;9.102;2022-10-24T09:50:46;15.90;99.90
27890;DHT22;15238;49.082;9.102;2022-10-24T09:52:49;16.00;99.90
27890;DHT22;15238;49.082;9.102;2022-10-24T09:55:09;16.00;99.90
27890;DHT22;15238;49.082;9.102;2022-10-24T09:57:16;16.10;99.90
27890;DHT22;15238;49.082;9.102;2022-10-24T10:01:38;16.20;99.90
27890;DHT22;15238;49.082;9.102;2022-10-24T10:03:39;16.20;99.90
27890;DHT22;15238;49.082;9.102;2022-10-24T10:05:51;16.20;99.90
27890;DHT22;15238;49.082;9.102;2022-10-24T10:07:53;16.20;99.90
27890;DHT22;15238;49.082;9.102;2022-10-24T10:10:00;16.30;99.90
27890;DHT22;15238;49.082;9.102;2022-10-24T10:12:01;16.30;99.90
27890;DHT22;15238;49.082;9.102;2022-10-24T10:14:02;16.40;99.90
27890;DHT22;15238;49.082;9.102;2022-10-24T10:16:04;16.40;99.90
27890;DHT22;15238;49.082;9.102;2022-10-24T10:18:27;16.40;99.90
27890;DHT22;15238;49.082;9.102;2022-10-24T10:22:37;16.50;99.90
27890;DHT22;15238;49.082;9.102;2022-10-24T10:24:42;16.50;99.90
27890;DHT22;15238;49.082;9.102;2022-10-24T10:26:44;16.50;99.90
27890;DHT22;15238;49.082;9.102;2022-10-24T10:29:08;16.50;99.90
27890;DHT22;15238;49.082;9.102;2022-10-24T10:31:27;16.50;99.90
27890;DHT22;15238;49.082;9.102;2022-10-24T10:36:01;16.50;99.90
27890;DHT22;15238;49.082;9.102;2022-10-24T10:40:45;16.60;99.90
27890;DHT22;15238;49.082;9.102;2022-10-24T10:43:11;16.60;99.90
27890;DHT22;15238;49.082;9.102;2022-10-24T10:45:45;16.60;99.90
27890;DHT22;15238;49.082;9.102;2022-10-24T10:49:58;16.60;99.90
27890;DHT22;15238;49.082;9.102;2022-10-24T10:52:13;16.60;99.90
27890;DHT22;15238;49.082;9.102;2022-10-24T10:57:11;16.60;99.90
27890;DHT22;15238;49.082;9.102;2022-10-24T11:01:52;16.50;99.90
27890;DHT22;15238;49.082;9.102;2022-10-24T11:04:40;16.60;99.90
27890;DHT22;15238;49.082;9.102;2022-10-24T11:07:09;16.50;99.90
27890;DHT22;15238;49.082;9.102;2022-10-24T11:11:31;16.40;99.90
27890;DHT22;15238;49.082;9.102;2022-10-24T11:13:37;16.40;99.90
27890;DHT22;15238;49.082;9.102;2022-10-24T11:15:44;16.50;99.90
27890;DHT22;15238;49.082;9.102;2022-10-24T11:17:59;16.50;99.90
27890;DHT22;15238;49.082;9.102;2022-10-24T11:22:34;16.60;99.90
27890;DHT22;15238;49.082;9.102;2022-10-24T11:24:44;16.80;99.90
27890;DHT22;15238;49.082;9.102;2022-10-24T11:26:57;16.90;99.90
27890;DHT22;15238;49.082;9.102;2022-10-24T11:29:23;17.00;99.90
27890;DHT22;15238;49.082;9.102;2022-10-24T11:31:38;17.10;99.90
27890;DHT22;15238;49.082;9.102;2022-10-24T11:35:59;17.30;99.90
27890;DHT22;15238;49.082;9.102;2022-10-24T11:40:19;17.40;99.90
27890;DHT22;15238;49.082;9.102;2022-10-24T11:46:57;17.40;99.90
27890;DHT22;15238;49.082;9.102;2022-10-24T11:49:07;17.30;99.90
27890;DHT22;15238;49.082;9.102;2022-10-24T11:51:24;17.30;99.90
27890;DHT22;15238;49.082;9.102;2022-10-24T11:55:36;17.30;99.90
27890;DHT22;15238;49.082;9.102;2022-10-24T11:57:41;17.30;99.90
27890;DHT22;15238;49.082;9.102;2022-10-24T11:59:42;17.40;99.90
27890;DHT22;15238;49.082;9.102;2022-10-24T12:06:33;17.40;99.90
27890;DHT22;15238;49.082;9.102;2022-10-24T12:13:14;17.50;99.90
27890;DHT22;15238;49.082;9.102;2022-10-24T12:17:59;17.50;99.90
27890;DHT22;15238;49.082;9.102;2022-10-24T12:20:02;17.50;99.90
27890;DHT22;15238;49.082;9.102;2022-10-24T12:22:05;17.50;99.90
27890;DHT22;15238;49.082;9.102;2022-10-24T12:26:31;17.50;99.90
27890;DHT22;15238;49.082;9.102;2022-10-24T12:28:32;17.50;99.90
27890;DHT22;15238;49.082;9.102;2022-10-24T12:30:34;17.50;99.90
27890;DHT22;15238;49.082;9.102;2022-10-24T12:34:41;17.50;99.90
27890;DHT22;15238;49.082;9.102;2022-10-24T12:39:28;17.50;99.90
27890;DHT22;15238;49.082;9.102;2022-10-24T12:43:35;17.50;99.90
27890;DHT22;15238;49.082;9.102;2022-10-24T12:45:36;17.60;99.90
27890;DHT22;15238;49.082;9.102;2022-10-24T12:48:13;17.60;99.90
27890;DHT22;15238;49.082;9.102;2022-10-24T12:54:41;17.80;99.90
27890;DHT22;15238;49.082;9.102;2022-10-24T12:59:00;18.00;99.90
27890;DHT22;15238;49.082;9.102;2022-10-24T13:03:20;18.10;99.90
27890;DHT22;15238;49.082;9.102;2022-10-24T13:07:47;18.10;99.90
27890;DHT22;15238;49.082;9.102;2022-10-24T13:19:33;18.00;99.90
27890;DHT22;15238;49.082;9.102;2022-10-24T13:21:46;18.00;99.90
27890;DHT22;15238;49.082;9.102;2022-10-24T13:23:47;18.00;99.90
27890;DHT22;15238;49.082;9.102;2022-10-24T13:25:53;18.00;99.90
27890;DHT22;15238;49.082;9.102;2022-10-24T13:30:25;18.00;99.90
27890;DHT22;15238;49.082;9.102;2022-10-24T13:32:33;18.10;99.90
27890;DHT22;15238;49.082;9.102;2022-10-24T13:37:06;18.10;99.90
27890;DHT22;15238;49.082;9.102;2022-10-24T13:39:17;18.20;99.90
27890;DHT22;15238;49.082;9.102;2022-10-24T13:41:42;18.20;99.90
27890;DHT22;15238;49.082;9.102;2022-10-24T13:43:47;18.20;99.90
27890;DHT22;15238;49.082;9.102;2022-10-24T13:47:52;18.30;99.90
27890;DHT22;15238;49.082;9.102;2022-10-24T13:50:13;18.20;99.90
27890;DHT22;15238;49.082;9.102;2022-10-24T13:52:43;18.20;99.90
27890;DHT22;15238;49.082;9.102;2022-10-24T13:54:49;18.20;99.90
27890;DHT22;15238;49.082;9.102;2022-10-24T13:56:52;18.30;99.90
27890;DHT22;15238;49.082;9.102;2022-10-24T13:58:52;18.20;99.90
27890;DHT22;15238;49.082;9.102;2022-10-24T14:01:10;18.30;99.90
27890;DHT22;15238;49.082;9.102;2022-10-24T14:03:16;18.40;99.90
27890;DHT22;15238;49.082;9.102;2022-10-24T14:05:39;18.40;99.90
27890;DHT22;15238;49.082;9.102;2022-10-24T14:07:39;18.50;99.90
27890;DHT22;15238;49.082;9.102;2022-10-24T14:09:41;18.50;99.90
27890;DHT22;15238;49.082;9.102;2022-10-24T14:11:44;18.50;99.90
27890;DHT22;15238;49.082;9.102;2022-10-24T14:13:48;18.50;99.90
27890;DHT22;15238;49.082;9.102;2022-10-24T14:15:55;18.50;99.90
27890;DHT22;15238;49.082;9.102;2022-10-24T14:18:10;18.60;99.90
27890;DHT22;15238;49.082;9.102;2022-10-24T14:22:23;18.50;99.90
27890;DHT22;15238;49.082;9.102;2022-10-24T14:24:24;18.60;99.90
27890;DHT22;15238;49.082;9.102;2022-10-24T14:26:25;18.50;99.90
27890;DHT22;15238;49.082;9.102;2022-10-24T14:28:28;18.50;99.90
27890;DHT22;15238;49.082;9.102;2022-10-24T14:30:30;18.60;99.90
27890;DHT22;15238;49.082;9.102;2022-10-24T14:32:31;18.60;99.90
27890;DHT22;15238;49.082;9.102;2022-10-24T14:34:32;18.60;99.90
27890;DHT22;15238;49.082;9.102;2022-10-24T14:36:37;18.60;99.90
27890;DHT22;15238;49.082;9.102;2022-10-24T14:38:38;18.60;99.90
27890;DHT22;15238;49.082;9.102;2022-10-24T14:40:43;18.60;99.90
27890;DHT22;15238;49.082;9.102;2022-10-24T14:42:45;18.60;99.90
27890;DHT22;15238;49.082;9.102;2022-10-24T14:44:46;18.60;99.90
27890;DHT22;15238;49.082;9.102;2022-10-24T14:47:03;18.70;99.90
27890;DHT22;15238;49.082;9.102;2022-10-24T14:51:30;18.80;99.90
27890;DHT22;15238;49.082;9.102;2022-10-24T14:53:35;18.80;99.90